sensor_id;sensor_type;location;lat;lon;timestamp;P1;durP1;ratioP1;P2;durP2;ratioP2
26102;SDS011;69760;49.380;8.998;2023-08-17T05:15:27;2.92;;;1.67;;
26102;SDS011;69760;49.380;8.998;2023-08-17T12:08:49;7.43;;;4.07;;
26102;SDS011;69760;49.380;8.998;2023-08-17T12:11:16;4.10;;;3.60;;
26102;SDS011;69760;49.380;8.998;2023-08-17T12:13:51;4.25;;;3.65;;
26102;SDS011;69760;49.380;8.998;2023-08-17T12:16:18;4.80;;;3.47;;
26102;SDS011;69760;49.380;8.998;2023-08-17T12:18:47;5.15;;;3.60;;
26102;SDS011;69760;49.380;8.998;2023-08-17T12:21:14;8.30;;;3.67;;
26102;SDS011;69760;49.380;8.998;2023-08-17T12:23:40;4.47;;;3.88;;
26102;SDS011;69760;49.380;8.998;2023-08-17T12:26:06;5.85;;;3.90;;
26102;SDS011;69760;49.380;8.998;2023-08-17T12:28:32;7.00;;;4.18;;
26102;SDS011;69760;49.380;8.998;2023-08-17T12:30:59;5.47;;;4.30;;
26102;SDS011;69760;49.380;8.998;2023-08-17T12:33:25;7.10;;;4.00;;
26102;SDS011;69760;49.380;8.998;2023-08-17T12:35:51;6.45;;;4.50;;
26102;SDS011;69760;49.380;8.998;2023-08-17T12:38:16;7.63;;;4.85;;
26102;SDS011;69760;49.380;8.998;2023-08-17T12:40:42;5.50;;;4.28;;
26102;SDS011;69760;49.380;8.998;2023-08-17T12:43:07;8.27;;;4.85;;
26102;SDS011;69760;49.380;8.998;2023-08-17T12:45:33;7.22;;;4.38;;
26102;SDS011;69760;49.380;8.998;2023-08-17T12:47:59;7.75;;;4.50;;
26102;SDS011;69760;49.380;8.998;2023-08-17T12:50:25;10.13;;;4.68;;
26102;SDS011;69760;49.380;8.998;2023-08-17T12:52:50;5.38;;;4.60;;
26102;SDS011;69760;49.380;8.998;2023-08-17T12:55:16;6.45;;;4.57;;
26102;SDS011;69760;49.380;8.998;2023-08-17T12:57:41;5.70;;;5.05;;
26102;SDS011;69760;49.380;8.998;2023-08-17T13:00:07;7.95;;;4.97;;
26102;SDS011;69760;49.380;8.998;2023-08-17T13:02:33;7.15;;;5.00;;
26102;SDS011;69760;49.380;8.998;2023-08-17T13:04:59;6.82;;;5.15;;
26102;SDS011;69760;49.380;8.998;2023-08-17T13:07:25;6.88;;;5.03;;
26102;SDS011;69760;49.380;8.998;2023-08-17T13:09:50;5.40;;;4.90;;
26102;SDS011;69760;49.380;8.998;2023-08-17T13:12:16;6.88;;;5.53;;
26102;SDS011;69760;49.380;8.998;2023-08-17T13:14:41;5.72;;;5.05;;
26102;SDS011;69760;49.380;8.998;2023-08-17T13:17:07;7.13;;;5.15;;
26102;SDS011;69760;49.380;8.998;2023-08-17T13:19:33;7.38;;;4.97;;
26102;SDS011;69760;49.380;8.998;2023-08-17T13:21:58;9.40;;;5.00;;
26102;SDS011;69760;49.380;8.998;2023-08-17T13:24:25;8.35;;;5.10;;
26102;SDS011;69760;49.380;8.998;2023-08-17T13:26:50;6.80;;;4.75;;
26102;SDS011;69760;49.380;8.998;2023-08-17T13:29:18;5.75;;;5.15;;
26102;SDS011;69760;49.380;8.998;2023-08-17T13:31:46;6.38;;;4.88;;
26102;SDS011;69760;49.380;8.998;2023-08-17T13:34:13;6.15;;;4.80;;
26102;SDS011;69760;49.380;8.998;2023-08-17T13:36:38;6.45;;;4.85;;
26102;SDS011;69760;49.380;8.998;2023-08-17T13:39:04;5.60;;;4.63;;
26102;SDS011;69760;49.380;8.998;2023-08-17T13:41:31;4.95;;;4.30;;
26102;SDS011;69760;49.380;8.998;2023-08-17T13:43:56;4.95;;;4.45;;
26102;SDS011;69760;49.380;8.998;2023-08-17T13:46:22;7.90;;;4.57;;
26102;SDS011;69760;49.380;8.998;2023-08-17T13:48:48;5.15;;;4.32;;
26102;SDS011;69760;49.380;8.998;2023-08-17T13:51:14;6.28;;;4.70;;
26102;SDS011;69760;49.380;8.998;2023-08-17T13:53:39;5.75;;;4.18;;
26102;SDS011;69760;49.380;8.998;2023-08-17T13:56:05;6.55;;;4.72;;
26102;SDS011;69760;49.380;8.998;2023-08-17T13:58:31;5.15;;;4.50;;
26102;SDS011;69760;49.380;8.998;2023-08-17T14:00:56;7.88;;;4.30;;
26102;SDS011;69760;49.380;8.998;2023-08-17T14:03:22;5.82;;;4.57;;
26102;SDS011;69760;49.380;8.998;2023-08-17T14:05:48;4.53;;;4.13;;
26102;SDS011;69760;49.380;8.998;2023-08-17T14:08:13;7.95;;;4.55;;
26102;SDS011;69760;49.380;8.998;2023-08-17T14:10:39;6.72;;;4.90;;
26102;SDS011;69760;49.380;8.998;2023-08-17T14:13:05;5.13;;;4.28;;
26102;SDS011;69760;49.380;8.998;2023-08-17T14:15:30;4.75;;;4.30;;
26102;SDS011;69760;49.380;8.998;2023-08-17T14:17:56;6.80;;;4.32;;
26102;SDS011;69760;49.380;8.998;2023-08-17T14:20:21;5.15;;;4.40;;
26102;SDS011;69760;49.380;8.998;2023-08-17T14:22:47;5.75;;;4.03;;
26102;SDS011;69760;49.380;8.998;2023-08-17T14:25:13;4.88;;;4.47;;
26102;SDS011;69760;49.380;8.998;2023-08-17T14:27:38;6.47;;;4.80;;
26102;SDS011;69760;49.380;8.998;2023-08-17T14:30:04;4.85;;;4.38;;
26102;SDS011;69760;49.380;8.998;2023-08-17T14:32:30;5.05;;;4.55;;
26102;SDS011;69760;49.380;8.998;2023-08-17T14:34:56;4.40;;;4.00;;
26102;SDS011;69760;49.380;8.998;2023-08-17T14:37:21;5.30;;;4.80;;
26102;SDS011;69760;49.380;8.998;2023-08-17T14:39:47;5.00;;;4.50;;
26102;SDS011;69760;49.380;8.998;2023-08-17T14:42:13;6.90;;;4.38;;
26102;SDS011;69760;49.380;8.998;2023-08-17T14:44:38;5.63;;;4.60;;
26102;SDS011;69760;49.380;8.998;2023-08-17T14:47:04;4.93;;;4.40;;
26102;SDS011;69760;49.380;8.998;2023-08-17T14:49:29;6.43;;;4.78;;
26102;SDS011;69760;49.380;8.998;2023-08-17T14:51:55;5.15;;;4.32;;
26102;SDS011;69760;49.380;8.998;2023-08-17T14:54:21;5.07;;;4.57;;
26102;SDS011;69760;49.380;8.998;2023-08-17T14:56:46;6.93;;;4.75;;
26102;SDS011;69760;49.380;8.998;2023-08-17T14:59:12;7.38;;;4.45;;
26102;SDS011;69760;49.380;8.998;2023-08-17T15:01:37;5.05;;;4.50;;
26102;SDS011;69760;49.380;8.998;2023-08-17T15:04:03;9.27;;;5.03;;
26102;SDS011;69760;49.380;8.998;2023-08-17T15:06:29;6.50;;;4.85;;
26102;SDS011;69760;49.380;8.998;2023-08-17T15:08:54;7.30;;;4.78;;
26102;SDS011;69760;49.380;8.998;2023-08-17T15:11:20;5.43;;;4.57;;
26102;SDS011;69760;49.380;8.998;2023-08-17T15:13:45;5.00;;;4.50;;
26102;SDS011;69760;49.380;8.998;2023-08-17T15:16:11;6.55;;;4.85;;
26102;SDS011;69760;49.380;8.998;2023-08-17T15:18:37;7.32;;;4.30;;
26102;SDS011;69760;49.380;8.998;2023-08-17T15:21:03;4.38;;;3.97;;
26102;SDS011;69760;49.380;8.998;2023-08-17T15:23:29;5.35;;;4.85;;
26102;SDS011;69760;49.380;8.998;2023-08-17T15:25:54;5.55;;;4.18;;
26102;SDS011;69760;49.380;8.998;2023-08-17T15:28:20;7.55;;;4.60;;
26102;SDS011;69760;49.380;8.998;2023-08-17T15:30:45;4.97;;;4.47;;
26102;SDS011;69760;49.380;8.998;2023-08-17T15:33:14;5.85;;;4.85;;
26102;SDS011;69760;49.380;8.998;2023-08-17T15:35:39;5.20;;;4.70;;
26102;SDS011;69760;49.380;8.998;2023-08-17T15:38:05;4.30;;;3.90;;
26102;SDS011;69760;49.380;8.998;2023-08-17T15:40:30;7.03;;;4.90;;
26102;SDS011;69760;49.380;8.998;2023-08-17T15:42:56;5.30;;;4.38;;
26102;SDS011;69760;49.380;8.998;2023-08-17T15:45:22;5.93;;;4.65;;
26102;SDS011;69760;49.380;8.998;2023-08-17T15:47:47;5.35;;;4.60;;
26102;SDS011;69760;49.380;8.998;2023-08-17T15:50:13;6.90;;;5.50;;
26102;SDS011;69760;49.380;8.998;2023-08-17T15:52:38;6.40;;;5.07;;
26102;SDS011;69760;49.380;8.998;2023-08-17T15:55:04;5.95;;;5.05;;
26102;SDS011;69760;49.380;8.998;2023-08-17T15:57:30;5.45;;;4.95;;
26102;SDS011;69760;49.380;8.998;2023-08-17T15:59:55;6.85;;;5.13;;
26102;SDS011;69760;49.380;8.998;2023-08-17T16:02:21;5.97;;;5.38;;
26102;SDS011;69760;49.380;8.998;2023-08-17T16:04:47;6.55;;;5.35;;
26102;SDS011;69760;49.380;8.998;2023-08-17T16:07:12;6.13;;;4.68;;
26102;SDS011;69760;49.380;8.998;2023-08-17T16:09:38;7.25;;;5.38;;
26102;SDS011;69760;49.380;8.998;2023-08-17T16:12:04;5.93;;;4.78;;
26102;SDS011;69760;49.380;8.998;2023-08-17T16:14:30;8.18;;;5.05;;
26102;SDS011;69760;49.380;8.998;2023-08-17T16:16:55;6.93;;;5.38;;
26102;SDS011;69760;49.380;8.998;2023-08-17T16:19:21;5.82;;;5.22;;
26102;SDS011;69760;49.380;8.998;2023-08-17T16:21:47;5.82;;;5.18;;
26102;SDS011;69760;49.380;8.998;2023-08-17T16:24:12;6.65;;;4.88;;
26102;SDS011;69760;49.380;8.998;2023-08-17T16:26:38;6.28;;;4.72;;
26102;SDS011;69760;49.380;8.998;2023-08-17T16:29:03;5.18;;;4.68;;
26102;SDS011;69760;49.380;8.998;2023-08-17T16:31:32;6.03;;;4.95;;
26102;SDS011;69760;49.380;8.998;2023-08-17T16:33:59;5.28;;;4.75;;
26102;SDS011;69760;49.380;8.998;2023-08-17T16:36:24;6.50;;;4.63;;
26102;SDS011;69760;49.380;8.998;2023-08-17T16:38:50;5.75;;;5.15;;
26102;SDS011;69760;49.380;8.998;2023-08-17T16:41:15;7.80;;;5.20;;
26102;SDS011;69760;49.380;8.998;2023-08-17T16:43:41;5.55;;;4.82;;
26102;SDS011;69760;49.380;8.998;2023-08-17T16:46:06;5.28;;;4.55;;
26102;SDS011;69760;49.380;8.998;2023-08-17T16:48:32;5.45;;;4.95;;
26102;SDS011;69760;49.380;8.998;2023-08-17T16:50:57;5.95;;;4.82;;
26102;SDS011;69760;49.380;8.998;2023-08-17T16:53:23;7.68;;;4.50;;
26102;SDS011;69760;49.380;8.998;2023-08-17T16:55:49;5.90;;;5.30;;
26102;SDS011;69760;49.380;8.998;2023-08-17T16:58:14;5.45;;;4.95;;
26102;SDS011;69760;49.380;8.998;2023-08-17T17:00:40;6.63;;;4.90;;
26102;SDS011;69760;49.380;8.998;2023-08-17T17:03:05;7.55;;;4.80;;
26102;SDS011;69760;49.380;8.998;2023-08-17T17:05:31;6.38;;;5.00;;
26102;SDS011;69760;49.380;8.998;2023-08-17T17:07:56;6.82;;;5.18;;
26102;SDS011;69760;49.380;8.998;2023-08-17T17:10:22;5.78;;;5.13;;
26102;SDS011;69760;49.380;8.998;2023-08-17T17:12:48;5.95;;;4.82;;
26102;SDS011;69760;49.380;8.998;2023-08-17T17:15:13;6.05;;;5.07;;
26102;SDS011;69760;49.380;8.998;2023-08-17T17:17:39;5.78;;;5.18;;
26102;SDS011;69760;49.380;8.998;2023-08-17T17:20:05;6.45;;;5.45;;
26102;SDS011;69760;49.380;8.998;2023-08-17T17:22:31;5.15;;;4.65;;
26102;SDS011;69760;49.380;8.998;2023-08-17T17:24:57;6.80;;;5.00;;
26102;SDS011;69760;49.380;8.998;2023-08-17T17:27:22;6.03;;;5.43;;
26102;SDS011;69760;49.380;8.998;2023-08-17T17:29:48;6.10;;;4.97;;
26102;SDS011;69760;49.380;8.998;2023-08-17T17:32:14;7.93;;;5.25;;
26102;SDS011;69760;49.380;8.998;2023-08-17T17:34:39;6.07;;;5.47;;
26102;SDS011;69760;49.380;8.998;2023-08-17T17:37:05;5.78;;;5.25;;
26102;SDS011;69760;49.380;8.998;2023-08-17T17:39:31;5.57;;;5.00;;
26102;SDS011;69760;49.380;8.998;2023-08-17T17:41:57;6.32;;;5.22;;
26102;SDS011;69760;49.380;8.998;2023-08-17T17:44:23;5.82;;;5.32;;
26102;SDS011;69760;49.380;8.998;2023-08-17T17:46:49;7.13;;;5.43;;
26102;SDS011;69760;49.380;8.998;2023-08-17T17:49:14;5.88;;;5.28;;
26102;SDS011;69760;49.380;8.998;2023-08-17T17:51:40;5.20;;;4.70;;
26102;SDS011;69760;49.380;8.998;2023-08-17T17:54:06;5.15;;;4.65;;
26102;SDS011;69760;49.380;8.998;2023-08-17T17:56:41;5.80;;;5.10;;
26102;SDS011;69760;49.380;8.998;2023-08-17T17:59:08;5.13;;;4.63;;
26102;SDS011;69760;49.380;8.998;2023-08-17T18:01:34;5.93;;;5.32;;
26102;SDS011;69760;49.380;8.998;2023-08-17T18:04:00;6.10;;;5.25;;
26102;SDS011;69760;49.380;8.998;2023-08-17T18:06:26;7.25;;;5.22;;
26102;SDS011;69760;49.380;8.998;2023-08-17T18:08:52;5.97;;;5.38;;
26102;SDS011;69760;49.380;8.998;2023-08-17T18:11:18;5.80;;;5.20;;
26102;SDS011;69760;49.380;8.998;2023-08-17T18:13:43;5.95;;;5.30;;
26102;SDS011;69760;49.380;8.998;2023-08-17T18:16:09;6.07;;;5.47;;
26102;SDS011;69760;49.380;8.998;2023-08-17T18:18:34;5.93;;;5.20;;
26102;SDS011;69760;49.380;8.998;2023-08-17T18:21:06;6.50;;;5.72;;
26102;SDS011;69760;49.380;8.998;2023-08-17T18:23:32;5.78;;;5.10;;
26102;SDS011;69760;49.380;8.998;2023-08-17T18:25:58;6.45;;;5.70;;
26102;SDS011;69760;49.380;8.998;2023-08-17T18:28:23;5.60;;;5.10;;
26102;SDS011;69760;49.380;8.998;2023-08-17T18:30:49;6.00;;;5.32;;
26102;SDS011;69760;49.380;8.998;2023-08-17T18:33:15;6.65;;;5.40;;
26102;SDS011;69760;49.380;8.998;2023-08-17T18:35:40;5.45;;;4.93;;
26102;SDS011;69760;49.380;8.998;2023-08-17T18:38:06;6.88;;;5.70;;
26102;SDS011;69760;49.380;8.998;2023-08-17T18:40:32;6.13;;;5.50;;
26102;SDS011;69760;49.380;8.998;2023-08-17T18:42:57;6.55;;;5.57;;
26102;SDS011;69760;49.380;8.998;2023-08-17T18:45:23;7.60;;;5.22;;
26102;SDS011;69760;49.380;8.998;2023-08-17T18:47:48;5.90;;;5.22;;
26102;SDS011;69760;49.380;8.998;2023-08-17T18:50:14;7.78;;;5.18;;
26102;SDS011;69760;49.380;8.998;2023-08-17T18:52:40;6.70;;;5.43;;
26102;SDS011;69760;49.380;8.998;2023-08-17T18:55:07;7.43;;;5.53;;
26102;SDS011;69760;49.380;8.998;2023-08-17T18:57:36;8.07;;;5.40;;
26102;SDS011;69760;49.380;8.998;2023-08-17T19:00:03;8.07;;;5.00;;
26102;SDS011;69760;49.380;8.998;2023-08-17T19:02:30;5.50;;;5.00;;
26102;SDS011;69760;49.380;8.998;2023-08-17T19:04:56;6.05;;;5.47;;
26102;SDS011;69760;49.380;8.998;2023-08-17T19:07:23;7.85;;;5.50;;
26102;SDS011;69760;49.380;8.998;2023-08-17T19:09:51;6.63;;;5.47;;
26102;SDS011;69760;49.380;8.998;2023-08-17T19:12:17;7.57;;;5.55;;
26102;SDS011;69760;49.380;8.998;2023-08-17T19:14:43;6.72;;;6.13;;
26102;SDS011;69760;49.380;8.998;2023-08-17T19:17:09;8.30;;;6.65;;
26102;SDS011;69760;49.380;8.998;2023-08-17T19:19:34;8.27;;;6.65;;
26102;SDS011;69760;49.380;8.998;2023-08-17T19:22:00;7.72;;;6.93;;
26102;SDS011;69760;49.380;8.998;2023-08-17T19:24:26;7.95;;;6.70;;
26102;SDS011;69760;49.380;8.998;2023-08-17T19:26:52;8.57;;;7.28;;
26102;SDS011;69760;49.380;8.998;2023-08-17T19:29:17;8.38;;;6.68;;
26102;SDS011;69760;49.380;8.998;2023-08-17T19:31:43;7.70;;;6.90;;
26102;SDS011;69760;49.380;8.998;2023-08-17T19:34:08;7.88;;;7.07;;
26102;SDS011;69760;49.380;8.998;2023-08-17T19:36:34;7.53;;;6.82;;
26102;SDS011;69760;49.380;8.998;2023-08-17T19:39:00;7.70;;;6.88;;
26102;SDS011;69760;49.380;8.998;2023-08-17T19:41:25;8.95;;;6.53;;
26102;SDS011;69760;49.380;8.998;2023-08-17T19:43:51;7.43;;;6.68;;
26102;SDS011;69760;49.380;8.998;2023-08-17T19:46:16;7.13;;;6.43;;
26102;SDS011;69760;49.380;8.998;2023-08-17T19:48:42;7.90;;;6.68;;
26102;SDS011;69760;49.380;8.998;2023-08-17T19:51:08;7.53;;;6.68;;
26102;SDS011;69760;49.380;8.998;2023-08-17T19:53:33;6.72;;;5.88;;
26102;SDS011;69760;49.380;8.998;2023-08-17T19:55:59;7.55;;;6.85;;
26102;SDS011;69760;49.380;8.998;2023-08-17T19:58:25;7.72;;;6.60;;
26102;SDS011;69760;49.380;8.998;2023-08-17T20:00:50;7.43;;;6.72;;
26102;SDS011;69760;49.380;8.998;2023-08-17T20:03:18;8.45;;;6.93;;
26102;SDS011;69760;49.380;8.998;2023-08-17T20:05:43;8.40;;;6.40;;
26102;SDS011;69760;49.380;8.998;2023-08-17T20:08:09;9.73;;;6.70;;
26102;SDS011;69760;49.380;8.998;2023-08-17T20:10:35;7.38;;;6.68;;
26102;SDS011;69760;49.380;8.998;2023-08-17T20:13:00;7.53;;;6.80;;
26102;SDS011;69760;49.380;8.998;2023-08-17T20:15:26;7.72;;;6.93;;
26102;SDS011;69760;49.380;8.998;2023-08-17T20:17:52;7.43;;;6.72;;
26102;SDS011;69760;49.380;8.998;2023-08-17T20:20:17;7.85;;;7.05;;
26102;SDS011;69760;49.380;8.998;2023-08-17T20:22:43;8.07;;;7.28;;
26102;SDS011;69760;49.380;8.998;2023-08-17T20:25:09;7.70;;;7.00;;
26102;SDS011;69760;49.380;8.998;2023-08-17T20:27:35;9.52;;;6.85;;
26102;SDS011;69760;49.380;8.998;2023-08-17T20:30:01;7.32;;;6.60;;
26102;SDS011;69760;49.380;8.998;2023-08-17T20:32:27;9.60;;;6.90;;
26102;SDS011;69760;49.380;8.998;2023-08-17T20:34:53;7.40;;;6.65;;
26102;SDS011;69760;49.380;8.998;2023-08-17T20:37:20;8.02;;;7.22;;
26102;SDS011;69760;49.380;8.998;2023-08-17T20:39:46;7.50;;;6.80;;
26102;SDS011;69760;49.380;8.998;2023-08-17T20:42:12;8.82;;;6.72;;
26102;SDS011;69760;49.380;8.998;2023-08-17T20:44:37;7.80;;;6.75;;
26102;SDS011;69760;49.380;8.998;2023-08-17T20:47:03;7.10;;;6.13;;
26102;SDS011;69760;49.380;8.998;2023-08-17T20:49:42;10.40;;;8.02;;
26102;SDS011;69760;49.380;8.998;2023-08-17T20:52:37;9.77;;;7.95;;
26102;SDS011;69760;49.380;8.998;2023-08-17T20:55:13;10.60;;;8.88;;
26102;SDS011;69760;49.380;8.998;2023-08-17T20:57:42;13.30;;;8.68;;
26102;SDS011;69760;49.380;8.998;2023-08-17T21:02:49;12.93;;;8.70;;
26102;SDS011;69760;49.380;8.998;2023-08-17T21:05:42;8.95;;;7.88;;
26102;SDS011;69760;49.380;8.998;2023-08-17T21:08:07;8.35;;;7.45;;
26102;SDS011;69760;49.380;8.998;2023-08-17T21:10:36;9.18;;;7.90;;
26102;SDS011;69760;49.380;8.998;2023-08-17T21:13:14;9.43;;;8.20;;
26102;SDS011;69760;49.380;8.998;2023-08-17T21:15:43;9.35;;;7.93;;
26102;SDS011;69760;49.380;8.998;2023-08-17T21:18:11;9.95;;;8.43;;
26102;SDS011;69760;49.380;8.998;2023-08-17T21:20:45;12.93;;;8.30;;
26102;SDS011;69760;49.380;8.998;2023-08-17T21:23:39;10.52;;;7.78;;
26102;SDS011;69760;49.380;8.998;2023-08-17T21:26:08;8.85;;;7.45;;
26102;SDS011;69760;49.380;8.998;2023-08-17T21:28:39;8.07;;;6.97;;
26102;SDS011;69760;49.380;8.998;2023-08-17T21:31:19;8.25;;;7.22;;
26102;SDS011;69760;49.380;8.998;2023-08-17T21:33:56;9.27;;;7.18;;
26102;SDS011;69760;49.380;8.998;2023-08-17T21:36:22;8.45;;;7.65;;
26102;SDS011;69760;49.380;8.998;2023-08-17T21:38:49;8.18;;;6.93;;
26102;SDS011;69760;49.380;8.998;2023-08-17T21:41:14;8.20;;;7.30;;
26102;SDS011;69760;49.380;8.998;2023-08-17T21:43:40;9.15;;;6.80;;
26102;SDS011;69760;49.380;8.998;2023-08-17T21:46:05;9.82;;;6.90;;
26102;SDS011;69760;49.380;8.998;2023-08-17T21:48:31;7.72;;;6.93;;
26102;SDS011;69760;49.380;8.998;2023-08-17T21:50:56;10.10;;;7.07;;
26102;SDS011;69760;49.380;8.998;2023-08-17T21:53:22;8.88;;;6.85;;
26102;SDS011;69760;49.380;8.998;2023-08-17T21:55:48;8.10;;;6.32;;
26102;SDS011;69760;49.380;8.998;2023-08-17T21:58:16;7.50;;;6.38;;
26102;SDS011;69760;49.380;8.998;2023-08-17T22:00:43;11.13;;;5.88;;
26102;SDS011;69760;49.380;8.998;2023-08-17T22:03:09;7.05;;;6.32;;
26102;SDS011;69760;49.380;8.998;2023-08-17T22:05:36;7.43;;;6.47;;
26102;SDS011;69760;49.380;8.998;2023-08-17T22:08:02;8.52;;;6.00;;
26102;SDS011;69760;49.380;8.998;2023-08-17T22:10:28;7.13;;;5.65;;
26102;SDS011;69760;49.380;8.998;2023-08-17T22:12:54;7.40;;;5.57;;
26102;SDS011;69760;49.380;8.998;2023-08-17T22:15:20;5.90;;;5.30;;
26102;SDS011;69760;49.380;8.998;2023-08-17T22:17:46;9.30;;;5.78;;
26102;SDS011;69760;49.380;8.998;2023-08-17T22:20:11;7.63;;;5.72;;
26102;SDS011;69760;49.380;8.998;2023-08-17T22:22:38;6.50;;;5.90;;
26102;SDS011;69760;49.380;8.998;2023-08-17T22:25:03;14.63;;;5.38;;
26102;SDS011;69760;49.380;8.998;2023-08-17T22:27:30;7.97;;;5.70;;
26102;SDS011;69760;49.380;8.998;2023-08-17T22:29:56;7.35;;;5.57;;
26102;SDS011;69760;49.380;8.998;2023-08-17T22:32:22;5.93;;;5.32;;
26102;SDS011;69760;49.380;8.998;2023-08-17T22:34:48;6.35;;;5.10;;
26102;SDS011;69760;49.380;8.998;2023-08-17T22:37:13;7.97;;;5.25;;
26102;SDS011;69760;49.380;8.998;2023-08-17T22:39:39;10.38;;;6.18;;
26102;SDS011;69760;49.380;8.998;2023-08-17T22:42:06;9.05;;;5.22;;
26102;SDS011;69760;49.380;8.998;2023-08-17T22:44:31;5.57;;;4.90;;
26102;SDS011;69760;49.380;8.998;2023-08-17T22:46:57;6.88;;;4.90;;
26102;SDS011;69760;49.380;8.998;2023-08-17T22:49:22;5.95;;;5.32;;
26102;SDS011;69760;49.380;8.998;2023-08-17T22:51:48;7.47;;;5.30;;
26102;SDS011;69760;49.380;8.998;2023-08-17T22:54:15;6.57;;;5.05;;
26102;SDS011;69760;49.380;8.998;2023-08-17T22:56:41;7.38;;;5.10;;
26102;SDS011;69760;49.380;8.998;2023-08-17T22:59:07;8.00;;;5.05;;
26102;SDS011;69760;49.380;8.998;2023-08-17T23:01:33;9.27;;;5.80;;
26102;SDS011;69760;49.380;8.998;2023-08-17T23:03:59;9.27;;;5.45;;
26102;SDS011;69760;49.380;8.998;2023-08-17T23:06:24;7.95;;;5.95;;
26102;SDS011;69760;49.380;8.998;2023-08-17T23:08:50;6.13;;;5.43;;
26102;SDS011;69760;49.380;8.998;2023-08-17T23:11:15;9.95;;;5.22;;
26102;SDS011;69760;49.380;8.998;2023-08-17T23:13:41;8.77;;;5.88;;
26102;SDS011;69760;49.380;8.998;2023-08-17T23:16:07;6.70;;;5.57;;
26102;SDS011;69760;49.380;8.998;2023-08-17T23:18:32;8.20;;;6.13;;
26102;SDS011;69760;49.380;8.998;2023-08-17T23:20:58;7.63;;;5.63;;
26102;SDS011;69760;49.380;8.998;2023-08-17T23:23:23;8.15;;;5.90;;
26102;SDS011;69760;49.380;8.998;2023-08-17T23:25:50;6.72;;;5.60;;
26102;SDS011;69760;49.380;8.998;2023-08-17T23:28:16;6.20;;;5.53;;
26102;SDS011;69760;49.380;8.998;2023-08-17T23:30:41;9.73;;;5.60;;
26102;SDS011;69760;49.380;8.998;2023-08-17T23:33:07;6.57;;;5.85;;
26102;SDS011;69760;49.380;8.998;2023-08-17T23:35:34;7.60;;;6.00;;
26102;SDS011;69760;49.380;8.998;2023-08-17T23:38:00;7.25;;;5.68;;
26102;SDS011;69760;49.380;8.998;2023-08-17T23:40:26;8.52;;;5.45;;
26102;SDS011;69760;49.380;8.998;2023-08-17T23:42:51;6.63;;;5.93;;
26102;SDS011;69760;49.380;8.998;2023-08-17T23:45:17;8.32;;;5.75;;
26102;SDS011;69760;49.380;8.998;2023-08-17T23:47:43;9.32;;;6.07;;
26102;SDS011;69760;49.380;8.998;2023-08-17T23:50:08;6.82;;;5.70;;
26102;SDS011;69760;49.380;8.998;2023-08-17T23:52:34;10.68;;;6.10;;
26102;SDS011;69760;49.380;8.998;2023-08-17T23:55:01;7.45;;;6.30;;
26102;SDS011;69760;49.380;8.998;2023-08-17T23:57:30;10.85;;;6.70;;
26102;SDS011;69760;49.380;8.998;2023-08-17T23:59:55;8.65;;;6.88;;
